sensor_id;sensor_type;location;lat;lon;timestamp;pressure;altitude;pressure_sealevel;temperature;humidity
15382;BME280;7789;51.364;12.358;2023-07-20T00:03:42;99926.09;;;18.87;100.00
15382;BME280;7789;51.364;12.358;2023-07-20T00:08:51;99934.06;;;18.87;100.00
15382;BME280;7789;51.364;12.358;2023-07-20T00:14:03;99924.06;;;18.82;100.00
15382;BME280;7789;51.364;12.358;2023-07-20T00:19:19;99925.63;;;18.77;100.00
15382;BME280;7789;51.364;12.358;2023-07-20T00:24:32;99926.16;;;18.73;100.00
15382;BME280;7789;51.364;12.358;2023-07-20T00:29:50;99923.69;;;18.71;100.00
15382;BME280;7789;51.364;12.358;2023-07-20T00:34:59;99911.28;;;18.72;100.00
15382;BME280;7789;51.364;12.358;2023-07-20T00:40:10;99910.47;;;18.71;100.00
15382;BME280;7789;51.364;12.358;2023-07-20T00:45:17;99915.97;;;18.70;100.00
15382;BME280;7789;51.364;12.358;2023-07-20T00:50:27;99908.81;;;18.70;100.00
15382;BME280;7789;51.364;12.358;2023-07-20T00:55:46;99920.88;;;18.73;100.00
15382;BME280;7789;51.364;12.358;2023-07-20T01:00:57;99915.75;;;18.71;100.00
15382;BME280;7789;51.364;12.358;2023-07-20T01:06:20;99913.09;;;18.71;100.00
15382;BME280;7789;51.364;12.358;2023-07-20T01:11:38;99919.25;;;18.72;100.00
15382;BME280;7789;51.364;12.358;2023-07-20T01:16:54;99918.41;;;18.71;100.00
15382;BME280;7789;51.364;12.358;2023-07-20T01:22:19;99914.75;;;18.72;100.00
15382;BME280;7789;51.364;12.358;2023-07-20T01:33:17;99908.41;;;18.67;100.00
15382;BME280;7789;51.364;12.358;2023-07-20T01:38:24;99903.28;;;18.65;100.00
15382;BME280;7789;51.364;12.358;2023-07-20T01:43:32;99903.66;;;18.62;100.00
15382;BME280;7789;51.364;12.358;2023-07-20T01:48:45;99903.19;;;18.59;100.00
15382;BME280;7789;51.364;12.358;2023-07-20T01:53:52;99911.06;;;18.52;100.00
15382;BME280;7789;51.364;12.358;2023-07-20T01:58:58;99910.00;;;18.47;100.00
15382;BME280;7789;51.364;12.358;2023-07-20T02:04:10;99906.09;;;18.43;100.00
15382;BME280;7789;51.364;12.358;2023-07-20T02:09:23;99910.94;;;18.39;100.00
15382;BME280;7789;51.364;12.358;2023-07-20T02:14:30;99917.97;;;18.32;100.00
15382;BME280;7789;51.364;12.358;2023-07-20T02:19:37;99922.81;;;18.29;100.00
15382;BME280;7789;51.364;12.358;2023-07-20T02:24:44;99919.81;;;18.32;100.00
15382;BME280;7789;51.364;12.358;2023-07-20T02:29:51;99925.75;;;18.34;100.00
15382;BME280;7789;51.364;12.358;2023-07-20T02:35:17;99925.81;;;18.40;100.00
15382;BME280;7789;51.364;12.358;2023-07-20T02:40:28;99926.47;;;18.42;100.00
15382;BME280;7789;51.364;12.358;2023-07-20T02:45:34;99936.22;;;18.42;100.00
15382;BME280;7789;51.364;12.358;2023-07-20T02:50:48;99934.41;;;18.42;100.00
15382;BME280;7789;51.364;12.358;2023-07-20T02:56:02;99940.25;;;18.38;100.00
15382;BME280;7789;51.364;12.358;2023-07-20T03:01:23;99947.00;;;18.40;100.00
15382;BME280;7789;51.364;12.358;2023-07-20T03:06:34;99946.53;;;18.37;100.00
15382;BME280;7789;51.364;12.358;2023-07-20T03:11:44;99951.38;;;18.33;100.00
15382;BME280;7789;51.364;12.358;2023-07-20T03:17:07;99949.38;;;18.35;100.00
15382;BME280;7789;51.364;12.358;2023-07-20T03:22:25;99945.38;;;18.39;100.00
15382;BME280;7789;51.364;12.358;2023-07-20T03:27:38;99949.44;;;18.42;100.00
15382;BME280;7789;51.364;12.358;2023-07-20T03:32:45;99940.69;;;18.41;100.00
15382;BME280;7789;51.364;12.358;2023-07-20T03:37:52;99947.44;;;18.44;100.00
15382;BME280;7789;51.364;12.358;2023-07-20T03:43:01;99950.44;;;18.41;100.00
15382;BME280;7789;51.364;12.358;2023-07-20T03:48:13;99951.72;;;18.45;100.00
15382;BME280;7789;51.364;12.358;2023-07-20T03:53:28;99970.25;;;18.45;100.00
15382;BME280;7789;51.364;12.358;2023-07-20T03:58:50;99967.59;;;18.45;100.00
15382;BME280;7789;51.364;12.358;2023-07-20T04:03:56;99972.56;;;18.48;100.00
15382;BME280;7789;51.364;12.358;2023-07-20T04:09:03;99978.09;;;18.53;100.00
15382;BME280;7789;51.364;12.358;2023-07-20T04:14:09;99979.38;;;18.57;100.00
15382;BME280;7789;51.364;12.358;2023-07-20T04:19:24;99964.47;;;18.56;100.00
15382;BME280;7789;51.364;12.358;2023-07-20T04:24:32;99974.25;;;18.55;100.00
15382;BME280;7789;51.364;12.358;2023-07-20T04:29:51;99978.56;;;18.56;100.00
15382;BME280;7789;51.364;12.358;2023-07-20T04:34:58;99979.00;;;18.60;100.00
15382;BME280;7789;51.364;12.358;2023-07-20T04:40:15;99980.47;;;18.62;100.00
15382;BME280;7789;51.364;12.358;2023-07-20T04:45:24;99976.63;;;18.65;100.00
15382;BME280;7789;51.364;12.358;2023-07-20T04:51:11;99972.38;;;18.70;100.00
15382;BME280;7789;51.364;12.358;2023-07-20T04:56:23;99975.66;;;18.72;100.00
15382;BME280;7789;51.364;12.358;2023-07-20T05:01:30;99982.25;;;18.76;100.00
15382;BME280;7789;51.364;12.358;2023-07-20T05:06:41;99989.63;;;18.80;100.00
15382;BME280;7789;51.364;12.358;2023-07-20T05:11:56;99986.25;;;18.86;100.00
15382;BME280;7789;51.364;12.358;2023-07-20T05:17:02;99988.50;;;18.89;100.00
15382;BME280;7789;51.364;12.358;2023-07-20T05:22:18;99993.03;;;18.95;100.00
15382;BME280;7789;51.364;12.358;2023-07-20T05:27:24;99993.94;;;19.02;100.00
15382;BME280;7789;51.364;12.358;2023-07-20T05:32:32;99996.66;;;19.09;100.00
15382;BME280;7789;51.364;12.358;2023-07-20T05:37:53;100001.88;;;19.17;100.00
15382;BME280;7789;51.364;12.358;2023-07-20T05:43:03;100002.31;;;19.20;100.00
15382;BME280;7789;51.364;12.358;2023-07-20T05:48:09;100008.09;;;19.30;100.00
15382;BME280;7789;51.364;12.358;2023-07-20T05:53:31;100012.03;;;19.55;100.00
15382;BME280;7789;51.364;12.358;2023-07-20T05:58:44;100008.47;;;19.69;100.00
15382;BME280;7789;51.364;12.358;2023-07-20T06:03:52;100022.06;;;19.87;100.00
15382;BME280;7789;51.364;12.358;2023-07-20T06:09:03;100009.75;;;20.35;100.00
15382;BME280;7789;51.364;12.358;2023-07-20T06:14:15;100003.31;;;20.57;100.00
15382;BME280;7789;51.364;12.358;2023-07-20T06:19:29;100006.41;;;21.39;100.00
15382;BME280;7789;51.364;12.358;2023-07-20T06:24:37;100010.88;;;22.36;100.00
15382;BME280;7789;51.364;12.358;2023-07-20T06:29:47;100016.44;;;25.28;93.29
15382;BME280;7789;51.364;12.358;2023-07-20T06:34:53;100004.75;;;24.75;89.17
15382;BME280;7789;51.364;12.358;2023-07-20T06:40:09;100002.06;;;23.79;91.41
15382;BME280;7789;51.364;12.358;2023-07-20T06:45:20;100010.88;;;23.30;95.95
15382;BME280;7789;51.364;12.358;2023-07-20T06:50:26;100013.22;;;23.14;96.54
15382;BME280;7789;51.364;12.358;2023-07-20T06:55:32;100010.94;;;23.17;96.08
15382;BME280;7789;51.364;12.358;2023-07-20T07:00:48;100013.88;;;23.65;89.92
15382;BME280;7789;51.364;12.358;2023-07-20T07:05:55;100005.84;;;24.14;84.95
15382;BME280;7789;51.364;12.358;2023-07-20T07:17:28;100008.13;;;23.68;85.19
15382;BME280;7789;51.364;12.358;2023-07-20T07:22:36;100005.41;;;23.50;85.68
15382;BME280;7789;51.364;12.358;2023-07-20T07:27:46;100019.03;;;23.35;84.71
15382;BME280;7789;51.364;12.358;2023-07-20T07:32:56;100022.50;;;23.05;82.80
15382;BME280;7789;51.364;12.358;2023-07-20T07:38:12;100024.44;;;22.85;86.66
15382;BME280;7789;51.364;12.358;2023-07-20T07:43:44;100024.00;;;22.94;87.34
15382;BME280;7789;51.364;12.358;2023-07-20T07:49:37;100033.09;;;23.49;82.64
15382;BME280;7789;51.364;12.358;2023-07-20T07:54:42;100028.94;;;23.28;83.77
15382;BME280;7789;51.364;12.358;2023-07-20T08:00:05;100026.38;;;23.71;84.35
15382;BME280;7789;51.364;12.358;2023-07-20T08:05:23;100019.00;;;24.87;77.74
15382;BME280;7789;51.364;12.358;2023-07-20T08:10:32;100026.53;;;25.67;72.19
15382;BME280;7789;51.364;12.358;2023-07-20T08:15:39;100031.88;;;24.78;74.24
15382;BME280;7789;51.364;12.358;2023-07-20T08:20:52;100027.09;;;24.98;74.51
15382;BME280;7789;51.364;12.358;2023-07-20T08:25:58;100034.06;;;24.99;72.10
15382;BME280;7789;51.364;12.358;2023-07-20T08:31:27;100024.28;;;24.93;71.69
15382;BME280;7789;51.364;12.358;2023-07-20T08:36:40;100038.44;;;24.65;72.01
15382;BME280;7789;51.364;12.358;2023-07-20T08:41:49;100036.00;;;24.63;71.58
15382;BME280;7789;51.364;12.358;2023-07-20T08:46:59;100032.69;;;24.97;71.02
15382;BME280;7789;51.364;12.358;2023-07-20T08:52:12;100021.97;;;24.97;69.47
15382;BME280;7789;51.364;12.358;2023-07-20T08:57:19;100019.50;;;24.95;68.43
15382;BME280;7789;51.364;12.358;2023-07-20T09:02:29;100018.38;;;25.03;69.15
15382;BME280;7789;51.364;12.358;2023-07-20T09:07:43;100012.72;;;25.40;67.86
15382;BME280;7789;51.364;12.358;2023-07-20T09:13:02;100014.75;;;25.27;63.94
15382;BME280;7789;51.364;12.358;2023-07-20T09:18:53;100012.31;;;24.96;66.27
15382;BME280;7789;51.364;12.358;2023-07-20T09:24:11;100019.94;;;24.63;64.57
15382;BME280;7789;51.364;12.358;2023-07-20T09:29:21;100018.63;;;24.48;67.61
15382;BME280;7789;51.364;12.358;2023-07-20T09:34:29;100031.28;;;24.23;70.62
15382;BME280;7789;51.364;12.358;2023-07-20T09:39:51;100035.16;;;24.02;77.55
15382;BME280;7789;51.364;12.358;2023-07-20T09:45:02;100033.00;;;23.62;82.37
15382;BME280;7789;51.364;12.358;2023-07-20T09:50:12;100077.78;;;23.29;86.45
15382;BME280;7789;51.364;12.358;2023-07-20T09:55:30;100068.28;;;23.02;92.28
15382;BME280;7789;51.364;12.358;2023-07-20T10:00:56;100075.16;;;22.72;95.31
15382;BME280;7789;51.364;12.358;2023-07-20T10:06:23;100071.56;;;22.47;99.36
15382;BME280;7789;51.364;12.358;2023-07-20T10:11:35;100083.25;;;22.40;100.00
15382;BME280;7789;51.364;12.358;2023-07-20T10:16:50;100090.00;;;22.23;100.00
15382;BME280;7789;51.364;12.358;2023-07-20T10:22:00;100092.66;;;22.10;100.00
15382;BME280;7789;51.364;12.358;2023-07-20T10:27:15;100085.69;;;21.83;100.00
15382;BME280;7789;51.364;12.358;2023-07-20T10:32:32;100088.16;;;21.78;100.00
15382;BME280;7789;51.364;12.358;2023-07-20T10:38:03;100081.19;;;21.70;100.00
15382;BME280;7789;51.364;12.358;2023-07-20T10:43:20;100075.88;;;21.70;100.00
15382;BME280;7789;51.364;12.358;2023-07-20T10:48:30;100087.13;;;21.79;100.00
15382;BME280;7789;51.364;12.358;2023-07-20T10:53:38;100077.50;;;21.71;100.00
15382;BME280;7789;51.364;12.358;2023-07-20T10:58:57;100076.03;;;21.56;100.00
15382;BME280;7789;51.364;12.358;2023-07-20T11:04:08;100065.16;;;21.38;100.00
15382;BME280;7789;51.364;12.358;2023-07-20T11:09:44;100065.63;;;21.67;100.00
15382;BME280;7789;51.364;12.358;2023-07-20T11:15:12;100065.00;;;21.91;100.00
15382;BME280;7789;51.364;12.358;2023-07-20T11:20:32;100072.75;;;22.32;100.00
15382;BME280;7789;51.364;12.358;2023-07-20T11:25:44;100076.28;;;22.39;100.00
15382;BME280;7789;51.364;12.358;2023-07-20T11:36:58;100088.56;;;22.33;100.00
15382;BME280;7789;51.364;12.358;2023-07-20T11:42:07;100095.28;;;22.36;100.00
15382;BME280;7789;51.364;12.358;2023-07-20T11:47:31;100083.78;;;22.61;100.00
15382;BME280;7789;51.364;12.358;2023-07-20T11:52:38;100089.69;;;22.76;100.00
15382;BME280;7789;51.364;12.358;2023-07-20T11:58:01;100081.31;;;22.73;100.00
15382;BME280;7789;51.364;12.358;2023-07-20T12:03:07;100096.47;;;22.78;100.00
15382;BME280;7789;51.364;12.358;2023-07-20T12:08:14;100096.66;;;22.77;100.00
15382;BME280;7789;51.364;12.358;2023-07-20T12:13:21;100086.41;;;22.80;100.00
15382;BME280;7789;51.364;12.358;2023-07-20T12:18:39;100090.91;;;22.80;100.00
15382;BME280;7789;51.364;12.358;2023-07-20T12:23:44;100092.50;;;22.94;100.00
15382;BME280;7789;51.364;12.358;2023-07-20T12:28:54;100099.00;;;23.04;100.00
15382;BME280;7789;51.364;12.358;2023-07-20T12:39:26;100094.97;;;23.39;98.00
15382;BME280;7789;51.364;12.358;2023-07-20T12:44:41;100087.91;;;23.51;94.47
15382;BME280;7789;51.364;12.358;2023-07-20T12:50:19;100089.94;;;23.56;89.81
15382;BME280;7789;51.364;12.358;2023-07-20T12:55:35;100078.50;;;23.73;92.71
15382;BME280;7789;51.364;12.358;2023-07-20T13:00:40;100085.50;;;23.74;91.01
15382;BME280;7789;51.364;12.358;2023-07-20T13:06:05;100098.84;;;23.74;85.83
15382;BME280;7789;51.364;12.358;2023-07-20T13:11:44;100105.84;;;23.75;80.42
15382;BME280;7789;51.364;12.358;2023-07-20T13:16:56;100093.44;;;23.81;87.99
15382;BME280;7789;51.364;12.358;2023-07-20T13:22:21;100080.38;;;23.73;83.79
15382;BME280;7789;51.364;12.358;2023-07-20T13:27:41;100084.47;;;23.75;83.90
15382;BME280;7789;51.364;12.358;2023-07-20T13:33:13;100083.50;;;24.01;79.24
15382;BME280;7789;51.364;12.358;2023-07-20T13:38:56;100077.69;;;24.04;79.85
15382;BME280;7789;51.364;12.358;2023-07-20T13:44:19;100075.19;;;23.84;76.09
15382;BME280;7789;51.364;12.358;2023-07-20T13:49:44;100056.41;;;23.66;77.14
15382;BME280;7789;51.364;12.358;2023-07-20T13:55:12;100066.78;;;23.50;74.87
15382;BME280;7789;51.364;12.358;2023-07-20T14:00:21;100069.00;;;23.59;75.08
15382;BME280;7789;51.364;12.358;2023-07-20T14:05:39;100071.34;;;23.74;71.84
15382;BME280;7789;51.364;12.358;2023-07-20T14:11:05;100063.13;;;23.75;73.04
15382;BME280;7789;51.364;12.358;2023-07-20T14:16:28;100066.25;;;23.97;71.81
15382;BME280;7789;51.364;12.358;2023-07-20T14:21:41;100063.06;;;24.06;69.30
15382;BME280;7789;51.364;12.358;2023-07-20T14:32:24;100054.16;;;23.94;67.00
15382;BME280;7789;51.364;12.358;2023-07-20T14:37:30;100040.47;;;23.84;68.33
15382;BME280;7789;51.364;12.358;2023-07-20T14:42:49;100053.22;;;23.82;66.52
15382;BME280;7789;51.364;12.358;2023-07-20T14:48:00;100055.91;;;23.76;64.73
15382;BME280;7789;51.364;12.358;2023-07-20T14:53:15;100047.34;;;23.67;64.38
15382;BME280;7789;51.364;12.358;2023-07-20T14:58:48;100043.31;;;23.58;61.99
15382;BME280;7789;51.364;12.358;2023-07-20T15:04:02;100049.94;;;23.49;61.93
15382;BME280;7789;51.364;12.358;2023-07-20T15:09:17;100032.66;;;23.58;60.94
15382;BME280;7789;51.364;12.358;2023-07-20T15:14:24;100028.66;;;23.67;63.64
15382;BME280;7789;51.364;12.358;2023-07-20T15:19:37;100023.47;;;23.72;64.01
15382;BME280;7789;51.364;12.358;2023-07-20T15:24:48;100004.19;;;23.70;60.74
15382;BME280;7789;51.364;12.358;2023-07-20T15:29:59;100021.78;;;23.78;62.47
15382;BME280;7789;51.364;12.358;2023-07-20T15:35:16;100016.50;;;23.71;59.55
15382;BME280;7789;51.364;12.358;2023-07-20T15:40:26;100021.97;;;23.58;62.20
15382;BME280;7789;51.364;12.358;2023-07-20T15:45:45;100016.69;;;23.52;56.10
15382;BME280;7789;51.364;12.358;2023-07-20T15:50:55;100009.91;;;23.49;54.03
15382;BME280;7789;51.364;12.358;2023-07-20T15:56:04;100004.19;;;23.46;51.60
15382;BME280;7789;51.364;12.358;2023-07-20T16:01:19;100007.72;;;23.40;53.10
15382;BME280;7789;51.364;12.358;2023-07-20T16:06:28;100003.47;;;23.32;53.58
15382;BME280;7789;51.364;12.358;2023-07-20T16:11:43;100005.53;;;23.30;55.39
15382;BME280;7789;51.364;12.358;2023-07-20T16:16:55;100002.00;;;23.36;55.40
15382;BME280;7789;51.364;12.358;2023-07-20T16:22:11;99999.56;;;23.35;55.63
15382;BME280;7789;51.364;12.358;2023-07-20T16:27:19;99992.66;;;23.21;54.32
15382;BME280;7789;51.364;12.358;2023-07-20T16:32:28;99998.16;;;23.26;53.16
15382;BME280;7789;51.364;12.358;2023-07-20T16:37:33;99994.91;;;23.24;53.38
15382;BME280;7789;51.364;12.358;2023-07-20T16:42:47;99998.03;;;23.14;57.35
15382;BME280;7789;51.364;12.358;2023-07-20T16:47:58;99994.97;;;23.04;57.33
15382;BME280;7789;51.364;12.358;2023-07-20T16:53:09;99996.69;;;22.99;56.93
15382;BME280;7789;51.364;12.358;2023-07-20T16:58:18;99993.78;;;23.00;56.83
15382;BME280;7789;51.364;12.358;2023-07-20T17:03:32;99992.31;;;23.04;56.94
15382;BME280;7789;51.364;12.358;2023-07-20T17:08:53;99993.94;;;23.05;55.94
15382;BME280;7789;51.364;12.358;2023-07-20T17:14:12;100000.13;;;23.12;54.25
15382;BME280;7789;51.364;12.358;2023-07-20T17:19:32;99994.13;;;23.17;54.07
15382;BME280;7789;51.364;12.358;2023-07-20T17:24:42;99982.25;;;23.13;57.32
15382;BME280;7789;51.364;12.358;2023-07-20T17:30:05;99983.72;;;23.02;55.57
15382;BME280;7789;51.364;12.358;2023-07-20T17:35:19;99981.16;;;22.89;58.48
15382;BME280;7789;51.364;12.358;2023-07-20T17:40:27;99980.97;;;22.78;55.34
15382;BME280;7789;51.364;12.358;2023-07-20T17:45:44;99976.09;;;22.68;58.06
15382;BME280;7789;51.364;12.358;2023-07-20T17:50:56;99982.31;;;22.56;55.37
15382;BME280;7789;51.364;12.358;2023-07-20T17:56:04;99973.16;;;22.46;56.20
15382;BME280;7789;51.364;12.358;2023-07-20T18:01:36;99969.28;;;22.42;52.63
15382;BME280;7789;51.364;12.358;2023-07-20T18:06:53;99973.56;;;22.36;52.93
15382;BME280;7789;51.364;12.358;2023-07-20T18:12:04;99966.63;;;22.29;56.47
15382;BME280;7789;51.364;12.358;2023-07-20T18:17:11;99966.03;;;22.20;54.75
15382;BME280;7789;51.364;12.358;2023-07-20T18:22:20;99960.72;;;22.14;58.88
15382;BME280;7789;51.364;12.358;2023-07-20T18:27:30;99970.97;;;22.04;58.44
15382;BME280;7789;51.364;12.358;2023-07-20T18:32:44;99967.94;;;21.94;58.48
15382;BME280;7789;51.364;12.358;2023-07-20T18:37:54;99963.03;;;21.84;58.91
15382;BME280;7789;51.364;12.358;2023-07-20T18:43:03;99967.16;;;21.74;59.49
15382;BME280;7789;51.364;12.358;2023-07-20T18:48:10;99967.31;;;21.59;59.25
15382;BME280;7789;51.364;12.358;2023-07-20T18:53:20;99971.66;;;21.47;60.96
15382;BME280;7789;51.364;12.358;2023-07-20T18:58:25;99973.69;;;21.39;59.55
15382;BME280;7789;51.364;12.358;2023-07-20T19:03:33;99974.91;;;21.36;60.04
15382;BME280;7789;51.364;12.358;2023-07-20T19:08:50;99976.13;;;21.27;57.43
15382;BME280;7789;51.364;12.358;2023-07-20T19:14:02;99980.19;;;21.17;57.66
15382;BME280;7789;51.364;12.358;2023-07-20T19:19:08;99990.59;;;21.05;58.48
15382;BME280;7789;51.364;12.358;2023-07-20T19:24:29;99994.69;;;21.01;59.08
15382;BME280;7789;51.364;12.358;2023-07-20T19:29:45;100006.16;;;20.95;59.43
15382;BME280;7789;51.364;12.358;2023-07-20T19:34:52;100012.84;;;20.91;60.11
15382;BME280;7789;51.364;12.358;2023-07-20T19:40:07;100015.94;;;20.88;60.54
15382;BME280;7789;51.364;12.358;2023-07-20T19:45:13;100021.66;;;20.85;60.78
15382;BME280;7789;51.364;12.358;2023-07-20T19:50:18;100016.88;;;20.81;62.90
15382;BME280;7789;51.364;12.358;2023-07-20T19:55:34;100027.31;;;20.76;65.69
15382;BME280;7789;51.364;12.358;2023-07-20T20:00:42;100030.94;;;20.68;65.01
15382;BME280;7789;51.364;12.358;2023-07-20T20:05:55;100036.22;;;20.62;64.35
15382;BME280;7789;51.364;12.358;2023-07-20T20:11:02;100038.63;;;20.51;64.84
15382;BME280;7789;51.364;12.358;2023-07-20T20:16:32;100041.22;;;20.38;65.61
15382;BME280;7789;51.364;12.358;2023-07-20T20:21:36;100039.13;;;20.27;66.81
15382;BME280;7789;51.364;12.358;2023-07-20T20:26:46;100033.50;;;20.15;67.99
15382;BME280;7789;51.364;12.358;2023-07-20T20:31:54;100039.16;;;20.06;67.18
15382;BME280;7789;51.364;12.358;2023-07-20T20:37:00;100037.84;;;19.95;70.24
15382;BME280;7789;51.364;12.358;2023-07-20T20:42:10;100036.97;;;19.88;69.85
15382;BME280;7789;51.364;12.358;2023-07-20T20:47:15;100049.38;;;19.81;70.39
15382;BME280;7789;51.364;12.358;2023-07-20T20:52:23;100052.78;;;19.75;70.49
15382;BME280;7789;51.364;12.358;2023-07-20T20:57:31;100053.75;;;19.68;72.05
15382;BME280;7789;51.364;12.358;2023-07-20T21:02:38;100050.03;;;19.62;73.93
15382;BME280;7789;51.364;12.358;2023-07-20T21:07:54;100047.69;;;19.53;74.53
15382;BME280;7789;51.364;12.358;2023-07-20T21:13:04;100050.66;;;19.43;75.58
15382;BME280;7789;51.364;12.358;2023-07-20T21:18:10;100048.16;;;19.35;76.27
15382;BME280;7789;51.364;12.358;2023-07-20T21:23:18;100051.38;;;19.31;77.88
15382;BME280;7789;51.364;12.358;2023-07-20T21:28:29;100058.69;;;19.29;79.04
15382;BME280;7789;51.364;12.358;2023-07-20T21:33:35;100053.94;;;19.24;78.73
15382;BME280;7789;51.364;12.358;2023-07-20T21:38:41;100055.13;;;19.22;79.05
15382;BME280;7789;51.364;12.358;2023-07-20T21:43:50;100056.72;;;19.16;79.36
15382;BME280;7789;51.364;12.358;2023-07-20T21:48:55;100053.75;;;19.11;80.51
15382;BME280;7789;51.364;12.358;2023-07-20T21:54:09;100044.38;;;19.09;79.19
15382;BME280;7789;51.364;12.358;2023-07-20T21:59:17;100045.38;;;19.08;80.82
15382;BME280;7789;51.364;12.358;2023-07-20T22:04:22;100044.31;;;19.02;81.49
15382;BME280;7789;51.364;12.358;2023-07-20T22:09:28;100052.81;;;18.98;80.72
15382;BME280;7789;51.364;12.358;2023-07-20T22:14:37;100052.34;;;18.94;81.96
15382;BME280;7789;51.364;12.358;2023-07-20T22:19:43;100059.88;;;18.91;81.45
15382;BME280;7789;51.364;12.358;2023-07-20T22:24:49;100052.66;;;18.85;81.67
15382;BME280;7789;51.364;12.358;2023-07-20T22:29:56;100062.22;;;18.86;81.28
15382;BME280;7789;51.364;12.358;2023-07-20T22:35:04;100057.78;;;18.86;80.11
15382;BME280;7789;51.364;12.358;2023-07-20T22:40:36;100056.75;;;18.87;81.04
15382;BME280;7789;51.364;12.358;2023-07-20T22:45:45;100050.63;;;18.87;77.75
15382;BME280;7789;51.364;12.358;2023-07-20T22:50:52;100061.06;;;18.88;74.06
15382;BME280;7789;51.364;12.358;2023-07-20T22:56:01;100048.25;;;18.92;72.84
15382;BME280;7789;51.364;12.358;2023-07-20T23:01:10;100047.03;;;18.94;71.87
15382;BME280;7789;51.364;12.358;2023-07-20T23:06:16;100043.59;;;18.94;71.86
15382;BME280;7789;51.364;12.358;2023-07-20T23:11:24;100041.75;;;18.94;71.14
15382;BME280;7789;51.364;12.358;2023-07-20T23:16:32;100040.50;;;18.90;71.37
15382;BME280;7789;51.364;12.358;2023-07-20T23:21:37;100035.94;;;18.84;71.39
15382;BME280;7789;51.364;12.358;2023-07-20T23:26:43;100034.22;;;18.77;70.85
15382;BME280;7789;51.364;12.358;2023-07-20T23:31:53;100029.09;;;18.75;71.00
15382;BME280;7789;51.364;12.358;2023-07-20T23:36:59;100033.94;;;18.72;71.24
15382;BME280;7789;51.364;12.358;2023-07-20T23:42:04;100030.03;;;18.68;69.56
15382;BME280;7789;51.364;12.358;2023-07-20T23:47:11;100020.69;;;18.72;68.32
15382;BME280;7789;51.364;12.358;2023-07-20T23:52:18;100015.41;;;18.72;68.15
15382;BME280;7789;51.364;12.358;2023-07-20T23:57:25;100011.78;;;18.73;67.76
